sensor_id;sensor_type;location;lat;lon;timestamp;P1;durP1;ratioP1;P2;durP2;ratioP2
77310;SDS011;66371;52.714;5.074;2023-06-14T00:00:06;3.75;;;3.45;;
77310;SDS011;66371;52.714;5.074;2023-06-14T00:02:32;4.70;;;4.28;;
77310;SDS011;66371;52.714;5.074;2023-06-14T00:04:58;4.93;;;4.40;;
77310;SDS011;66371;52.714;5.074;2023-06-14T00:07:33;6.40;;;5.70;;
77310;SDS011;66371;52.714;5.074;2023-06-14T00:10:03;5.38;;;4.88;;
77310;SDS011;66371;52.714;5.074;2023-06-14T00:12:30;5.30;;;3.17;;
77310;SDS011;66371;52.714;5.074;2023-06-14T00:14:56;4.70;;;4.07;;
77310;SDS011;66371;52.714;5.074;2023-06-14T00:17:21;3.72;;;2.78;;
77310;SDS011;66371;52.714;5.074;2023-06-14T00:19:47;3.83;;;3.53;;
77310;SDS011;66371;52.714;5.074;2023-06-14T00:22:13;4.07;;;3.67;;
77310;SDS011;66371;52.714;5.074;2023-06-14T00:24:38;5.03;;;3.28;;
77310;SDS011;66371;52.714;5.074;2023-06-14T00:27:04;3.90;;;3.38;;
77310;SDS011;66371;52.714;5.074;2023-06-14T00:29:30;4.63;;;3.05;;
77310;SDS011;66371;52.714;5.074;2023-06-14T00:31:55;4.05;;;3.67;;
77310;SDS011;66371;52.714;5.074;2023-06-14T00:34:21;4.85;;;4.45;;
77310;SDS011;66371;52.714;5.074;2023-06-14T00:36:49;3.97;;;3.28;;
77310;SDS011;66371;52.714;5.074;2023-06-14T00:39:14;5.43;;;5.03;;
77310;SDS011;66371;52.714;5.074;2023-06-14T00:41:40;3.95;;;3.47;;
77310;SDS011;66371;52.714;5.074;2023-06-14T00:44:05;5.43;;;4.40;;
77310;SDS011;66371;52.714;5.074;2023-06-14T00:46:31;5.85;;;3.00;;
77310;SDS011;66371;52.714;5.074;2023-06-14T00:48:56;6.70;;;3.95;;
77310;SDS011;66371;52.714;5.074;2023-06-14T00:51:25;4.05;;;3.25;;
77310;SDS011;66371;52.714;5.074;2023-06-14T00:53:51;4.82;;;4.43;;
77310;SDS011;66371;52.714;5.074;2023-06-14T00:56:16;4.70;;;3.97;;
77310;SDS011;66371;52.714;5.074;2023-06-14T00:58:45;3.20;;;2.90;;
77310;SDS011;66371;52.714;5.074;2023-06-14T01:03:46;6.63;;;4.60;;
77310;SDS011;66371;52.714;5.074;2023-06-14T01:06:20;4.90;;;3.80;;
77310;SDS011;66371;52.714;5.074;2023-06-14T01:11:50;4.60;;;4.07;;
77310;SDS011;66371;52.714;5.074;2023-06-14T01:14:32;4.28;;;3.97;;
77310;SDS011;66371;52.714;5.074;2023-06-14T01:16:59;4.82;;;4.43;;
77310;SDS011;66371;52.714;5.074;2023-06-14T01:19:25;5.18;;;3.90;;
77310;SDS011;66371;52.714;5.074;2023-06-14T01:21:53;5.25;;;3.08;;
77310;SDS011;66371;52.714;5.074;2023-06-14T01:24:20;5.05;;;4.63;;
77310;SDS011;66371;52.714;5.074;2023-06-14T01:26:51;5.50;;;4.93;;
77310;SDS011;66371;52.714;5.074;2023-06-14T01:29:22;6.03;;;4.93;;
77310;SDS011;66371;52.714;5.074;2023-06-14T01:31:49;4.30;;;3.90;;
77310;SDS011;66371;52.714;5.074;2023-06-14T01:34:15;4.93;;;4.22;;
77310;SDS011;66371;52.714;5.074;2023-06-14T01:36:41;5.43;;;4.68;;
77310;SDS011;66371;52.714;5.074;2023-06-14T01:39:10;4.63;;;3.88;;
77310;SDS011;66371;52.714;5.074;2023-06-14T01:41:38;4.85;;;3.30;;
77310;SDS011;66371;52.714;5.074;2023-06-14T01:44:05;8.38;;;5.50;;
77310;SDS011;66371;52.714;5.074;2023-06-14T01:46:31;4.88;;;4.32;;
77310;SDS011;66371;52.714;5.074;2023-06-14T01:48:57;4.20;;;3.80;;
77310;SDS011;66371;52.714;5.074;2023-06-14T01:51:23;4.50;;;4.10;;
77310;SDS011;66371;52.714;5.074;2023-06-14T01:53:49;4.85;;;4.35;;
77310;SDS011;66371;52.714;5.074;2023-06-14T01:56:14;5.20;;;4.73;;
77310;SDS011;66371;52.714;5.074;2023-06-14T01:58:40;5.22;;;4.63;;
77310;SDS011;66371;52.714;5.074;2023-06-14T02:01:13;5.22;;;4.70;;
77310;SDS011;66371;52.714;5.074;2023-06-14T02:03:48;5.20;;;3.50;;
77310;SDS011;66371;52.714;5.074;2023-06-14T02:06:26;6.60;;;4.57;;
77310;SDS011;66371;52.714;5.074;2023-06-14T02:08:56;4.03;;;3.63;;
77310;SDS011;66371;52.714;5.074;2023-06-14T02:11:38;6.40;;;4.63;;
77310;SDS011;66371;52.714;5.074;2023-06-14T02:14:05;4.18;;;3.78;;
77310;SDS011;66371;52.714;5.074;2023-06-14T02:16:48;4.85;;;4.45;;
77310;SDS011;66371;52.714;5.074;2023-06-14T02:19:19;5.80;;;4.40;;
77310;SDS011;66371;52.714;5.074;2023-06-14T02:21:48;5.53;;;3.83;;
77310;SDS011;66371;52.714;5.074;2023-06-14T02:24:14;4.82;;;4.43;;
77310;SDS011;66371;52.714;5.074;2023-06-14T02:26:41;3.95;;;3.55;;
77310;SDS011;66371;52.714;5.074;2023-06-14T02:29:13;4.53;;;4.20;;
77310;SDS011;66371;52.714;5.074;2023-06-14T02:31:40;4.53;;;3.83;;
77310;SDS011;66371;52.714;5.074;2023-06-14T02:34:09;4.75;;;4.32;;
77310;SDS011;66371;52.714;5.074;2023-06-14T02:36:39;7.30;;;4.75;;
77310;SDS011;66371;52.714;5.074;2023-06-14T02:39:10;3.63;;;3.33;;
77310;SDS011;66371;52.714;5.074;2023-06-14T02:41:39;4.28;;;3.88;;
77310;SDS011;66371;52.714;5.074;2023-06-14T02:44:05;5.25;;;4.32;;
77310;SDS011;66371;52.714;5.074;2023-06-14T02:46:33;5.00;;;3.47;;
77310;SDS011;66371;52.714;5.074;2023-06-14T02:49:07;4.25;;;3.58;;
77310;SDS011;66371;52.714;5.074;2023-06-14T02:51:37;3.78;;;3.30;;
77310;SDS011;66371;52.714;5.074;2023-06-14T02:54:18;5.65;;;4.75;;
77310;SDS011;66371;52.714;5.074;2023-06-14T02:56:44;4.28;;;3.88;;
77310;SDS011;66371;52.714;5.074;2023-06-14T02:59:10;3.83;;;3.53;;
77310;SDS011;66371;52.714;5.074;2023-06-14T03:01:39;5.93;;;3.85;;
77310;SDS011;66371;52.714;5.074;2023-06-14T03:04:42;5.45;;;4.95;;
77310;SDS011;66371;52.714;5.074;2023-06-14T03:07:13;4.28;;;3.88;;
77310;SDS011;66371;52.714;5.074;2023-06-14T03:09:44;5.03;;;4.43;;
77310;SDS011;66371;52.714;5.074;2023-06-14T03:12:11;4.72;;;4.32;;
77310;SDS011;66371;52.714;5.074;2023-06-14T03:14:40;4.40;;;4.00;;
77310;SDS011;66371;52.714;5.074;2023-06-14T03:17:09;4.85;;;4.45;;
77310;SDS011;66371;52.714;5.074;2023-06-14T03:19:45;4.28;;;3.97;;
77310;SDS011;66371;52.714;5.074;2023-06-14T03:22:12;5.80;;;5.43;;
77310;SDS011;66371;52.714;5.074;2023-06-14T03:24:40;5.15;;;4.65;;
77310;SDS011;66371;52.714;5.074;2023-06-14T03:27:09;4.43;;;3.88;;
77310;SDS011;66371;52.714;5.074;2023-06-14T03:29:39;4.97;;;4.35;;
77310;SDS011;66371;52.714;5.074;2023-06-14T03:32:05;5.40;;;4.28;;
77310;SDS011;66371;52.714;5.074;2023-06-14T03:34:36;5.10;;;4.72;;
77310;SDS011;66371;52.714;5.074;2023-06-14T03:37:06;4.30;;;3.90;;
77310;SDS011;66371;52.714;5.074;2023-06-14T03:39:37;4.50;;;4.03;;
77310;SDS011;66371;52.714;5.074;2023-06-14T03:42:25;3.85;;;3.55;;
77310;SDS011;66371;52.714;5.074;2023-06-14T03:44:51;4.63;;;4.00;;
77310;SDS011;66371;52.714;5.074;2023-06-14T03:47:24;4.45;;;4.05;;
77310;SDS011;66371;52.714;5.074;2023-06-14T03:49:53;5.05;;;3.67;;
77310;SDS011;66371;52.714;5.074;2023-06-14T03:52:18;6.60;;;6.00;;
77310;SDS011;66371;52.714;5.074;2023-06-14T03:54:58;4.50;;;3.60;;
77310;SDS011;66371;52.714;5.074;2023-06-14T03:57:26;4.75;;;4.22;;
77310;SDS011;66371;52.714;5.074;2023-06-14T03:59:56;4.32;;;3.38;;
77310;SDS011;66371;52.714;5.074;2023-06-14T04:02:27;3.75;;;3.45;;
77310;SDS011;66371;52.714;5.074;2023-06-14T04:05:00;6.88;;;4.07;;
77310;SDS011;66371;52.714;5.074;2023-06-14T04:07:28;4.95;;;4.55;;
77310;SDS011;66371;52.714;5.074;2023-06-14T04:10:07;5.15;;;4.75;;
77310;SDS011;66371;52.714;5.074;2023-06-14T04:12:39;4.68;;;3.35;;
77310;SDS011;66371;52.714;5.074;2023-06-14T04:15:10;5.63;;;4.05;;
77310;SDS011;66371;52.714;5.074;2023-06-14T04:17:49;4.78;;;3.50;;
77310;SDS011;66371;52.714;5.074;2023-06-14T04:20:36;4.15;;;3.75;;
77310;SDS011;66371;52.714;5.074;2023-06-14T04:23:13;5.40;;;4.90;;
77310;SDS011;66371;52.714;5.074;2023-06-14T04:25:40;4.03;;;3.67;;
77310;SDS011;66371;52.714;5.074;2023-06-14T04:28:10;4.47;;;4.07;;
77310;SDS011;66371;52.714;5.074;2023-06-14T04:30:46;6.40;;;4.13;;
77310;SDS011;66371;52.714;5.074;2023-06-14T04:33:15;4.95;;;4.47;;
77310;SDS011;66371;52.714;5.074;2023-06-14T04:35:42;4.28;;;3.88;;
77310;SDS011;66371;52.714;5.074;2023-06-14T04:38:08;4.20;;;3.08;;
77310;SDS011;66371;52.714;5.074;2023-06-14T04:40:43;3.67;;;3.15;;
77310;SDS011;66371;52.714;5.074;2023-06-14T04:43:18;4.43;;;4.00;;
77310;SDS011;66371;52.714;5.074;2023-06-14T04:45:54;4.57;;;4.00;;
77310;SDS011;66371;52.714;5.074;2023-06-14T04:48:22;6.70;;;4.15;;
77310;SDS011;66371;52.714;5.074;2023-06-14T04:50:52;6.50;;;4.25;;
77310;SDS011;66371;52.714;5.074;2023-06-14T04:53:24;4.35;;;3.45;;
77310;SDS011;66371;52.714;5.074;2023-06-14T04:56:01;4.45;;;3.95;;
77310;SDS011;66371;52.714;5.074;2023-06-14T04:58:29;5.50;;;4.88;;
77310;SDS011;66371;52.714;5.074;2023-06-14T05:00:59;4.35;;;3.60;;
77310;SDS011;66371;52.714;5.074;2023-06-14T05:03:29;3.40;;;3.10;;
77310;SDS011;66371;52.714;5.074;2023-06-14T05:05:55;4.22;;;3.42;;
77310;SDS011;66371;52.714;5.074;2023-06-14T05:08:22;3.88;;;3.55;;
77310;SDS011;66371;52.714;5.074;2023-06-14T05:10:51;7.05;;;4.05;;
77310;SDS011;66371;52.714;5.074;2023-06-14T05:13:21;4.22;;;3.83;;
77310;SDS011;66371;52.714;5.074;2023-06-14T05:15:47;3.97;;;3.67;;
77310;SDS011;66371;52.714;5.074;2023-06-14T05:18:16;6.25;;;4.35;;
77310;SDS011;66371;52.714;5.074;2023-06-14T05:21:12;3.58;;;2.92;;
77310;SDS011;66371;52.714;5.074;2023-06-14T05:23:42;5.85;;;3.83;;
77310;SDS011;66371;52.714;5.074;2023-06-14T05:26:13;4.50;;;3.00;;
77310;SDS011;66371;52.714;5.074;2023-06-14T05:28:38;3.35;;;2.83;;
77310;SDS011;66371;52.714;5.074;2023-06-14T05:31:26;4.75;;;3.60;;
77310;SDS011;66371;52.714;5.074;2023-06-14T05:33:54;7.03;;;3.88;;
77310;SDS011;66371;52.714;5.074;2023-06-14T05:36:24;4.43;;;3.83;;
77310;SDS011;66371;52.714;5.074;2023-06-14T05:38:53;4.65;;;3.03;;
77310;SDS011;66371;52.714;5.074;2023-06-14T05:44:18;3.55;;;3.25;;
77310;SDS011;66371;52.714;5.074;2023-06-14T05:46:54;5.28;;;3.55;;
77310;SDS011;66371;52.714;5.074;2023-06-14T05:49:43;5.00;;;3.45;;
77310;SDS011;66371;52.714;5.074;2023-06-14T05:52:19;3.83;;;3.47;;
77310;SDS011;66371;52.714;5.074;2023-06-14T05:58:13;3.95;;;3.65;;
77310;SDS011;66371;52.714;5.074;2023-06-14T06:03:52;7.05;;;4.03;;
77310;SDS011;66371;52.714;5.074;2023-06-14T06:06:38;3.50;;;2.78;;
77310;SDS011;66371;52.714;5.074;2023-06-14T06:09:08;5.13;;;4.72;;
77310;SDS011;66371;52.714;5.074;2023-06-14T06:11:58;5.82;;;3.60;;
77310;SDS011;66371;52.714;5.074;2023-06-14T06:17:14;6.13;;;3.95;;
77310;SDS011;66371;52.714;5.074;2023-06-14T06:19:45;4.85;;;4.07;;
77310;SDS011;66371;52.714;5.074;2023-06-14T06:22:24;3.13;;;2.78;;
77310;SDS011;66371;52.714;5.074;2023-06-14T06:24:52;5.57;;;4.95;;
77310;SDS011;66371;52.714;5.074;2023-06-14T06:27:25;4.22;;;3.55;;
77310;SDS011;66371;52.714;5.074;2023-06-14T06:29:52;4.40;;;3.30;;
77310;SDS011;66371;52.714;5.074;2023-06-14T06:32:21;3.83;;;3.33;;
77310;SDS011;66371;52.714;5.074;2023-06-14T06:34:50;7.10;;;2.78;;
77310;SDS011;66371;52.714;5.074;2023-06-14T06:37:22;3.80;;;3.40;;
77310;SDS011;66371;52.714;5.074;2023-06-14T06:40:00;5.43;;;3.63;;
77310;SDS011;66371;52.714;5.074;2023-06-14T06:42:52;3.33;;;2.65;;
77310;SDS011;66371;52.714;5.074;2023-06-14T06:45:44;4.75;;;3.80;;
77310;SDS011;66371;52.714;5.074;2023-06-14T06:48:17;4.25;;;3.67;;
77310;SDS011;66371;52.714;5.074;2023-06-14T06:51:00;5.65;;;5.13;;
77310;SDS011;66371;52.714;5.074;2023-06-14T06:53:28;4.07;;;3.58;;
77310;SDS011;66371;52.714;5.074;2023-06-14T06:56:00;3.45;;;3.08;;
77310;SDS011;66371;52.714;5.074;2023-06-14T06:58:26;4.22;;;3.90;;
77310;SDS011;66371;52.714;5.074;2023-06-14T07:00:56;3.63;;;3.20;;
77310;SDS011;66371;52.714;5.074;2023-06-14T07:03:25;4.18;;;3.85;;
77310;SDS011;66371;52.714;5.074;2023-06-14T07:05:53;5.00;;;3.72;;
77310;SDS011;66371;52.714;5.074;2023-06-14T07:08:31;4.57;;;4.15;;
77310;SDS011;66371;52.714;5.074;2023-06-14T07:11:04;4.50;;;3.03;;
77310;SDS011;66371;52.714;5.074;2023-06-14T07:13:59;3.78;;;3.45;;
77310;SDS011;66371;52.714;5.074;2023-06-14T07:16:34;4.50;;;3.33;;
77310;SDS011;66371;52.714;5.074;2023-06-14T07:19:33;5.13;;;3.92;;
77310;SDS011;66371;52.714;5.074;2023-06-14T07:22:03;3.70;;;3.30;;
77310;SDS011;66371;52.714;5.074;2023-06-14T07:27:50;4.32;;;3.20;;
77310;SDS011;66371;52.714;5.074;2023-06-14T07:30:20;5.03;;;4.03;;
77310;SDS011;66371;52.714;5.074;2023-06-14T07:33:06;5.30;;;2.85;;
77310;SDS011;66371;52.714;5.074;2023-06-14T07:35:59;5.32;;;3.38;;
77310;SDS011;66371;52.714;5.074;2023-06-14T07:38:33;4.65;;;2.33;;
77310;SDS011;66371;52.714;5.074;2023-06-14T07:41:11;4.72;;;4.13;;
77310;SDS011;66371;52.714;5.074;2023-06-14T07:44:45;3.60;;;3.15;;
77310;SDS011;66371;52.714;5.074;2023-06-14T07:47:15;4.75;;;2.85;;
77310;SDS011;66371;52.714;5.074;2023-06-14T07:49:43;3.83;;;3.10;;
77310;SDS011;66371;52.714;5.074;2023-06-14T07:52:53;4.22;;;3.42;;
77310;SDS011;66371;52.714;5.074;2023-06-14T07:55:25;3.95;;;3.63;;
77310;SDS011;66371;52.714;5.074;2023-06-14T07:58:11;5.10;;;2.78;;
77310;SDS011;66371;52.714;5.074;2023-06-14T08:00:57;6.20;;;3.00;;
77310;SDS011;66371;52.714;5.074;2023-06-14T08:06:27;4.25;;;3.00;;
77310;SDS011;66371;52.714;5.074;2023-06-14T08:08:59;5.53;;;2.75;;
77310;SDS011;66371;52.714;5.074;2023-06-14T08:11:28;5.53;;;2.60;;
77310;SDS011;66371;52.714;5.074;2023-06-14T08:14:36;5.30;;;2.20;;
77310;SDS011;66371;52.714;5.074;2023-06-14T08:17:03;3.03;;;2.72;;
77310;SDS011;66371;52.714;5.074;2023-06-14T08:19:36;3.53;;;2.80;;
77310;SDS011;66371;52.714;5.074;2023-06-14T08:22:12;3.33;;;2.67;;
77310;SDS011;66371;52.714;5.074;2023-06-14T08:24:45;3.65;;;2.58;;
77310;SDS011;66371;52.714;5.074;2023-06-14T08:27:20;4.50;;;2.15;;
77310;SDS011;66371;52.714;5.074;2023-06-14T08:29:48;6.20;;;2.38;;
77310;SDS011;66371;52.714;5.074;2023-06-14T08:32:19;2.90;;;1.80;;
77310;SDS011;66371;52.714;5.074;2023-06-14T08:35:07;3.75;;;2.25;;
77310;SDS011;66371;52.714;5.074;2023-06-14T08:37:40;4.10;;;2.38;;
77310;SDS011;66371;52.714;5.074;2023-06-14T08:40:21;3.15;;;1.75;;
77310;SDS011;66371;52.714;5.074;2023-06-14T08:42:52;3.60;;;1.45;;
77310;SDS011;66371;52.714;5.074;2023-06-14T08:45:19;3.95;;;2.25;;
77310;SDS011;66371;52.714;5.074;2023-06-14T08:47:54;2.22;;;1.73;;
77310;SDS011;66371;52.714;5.074;2023-06-14T08:50:24;3.33;;;1.88;;
77310;SDS011;66371;52.714;5.074;2023-06-14T08:53:00;3.28;;;2.28;;
77310;SDS011;66371;52.714;5.074;2023-06-14T08:57:56;4.03;;;1.95;;
77310;SDS011;66371;52.714;5.074;2023-06-14T09:00:24;3.17;;;2.53;;
77310;SDS011;66371;52.714;5.074;2023-06-14T09:02:58;4.07;;;2.58;;
77310;SDS011;66371;52.714;5.074;2023-06-14T09:05:29;3.70;;;2.35;;
77310;SDS011;66371;52.714;5.074;2023-06-14T09:08:03;3.83;;;2.55;;
77310;SDS011;66371;52.714;5.074;2023-06-14T09:10:31;3.10;;;2.10;;
77310;SDS011;66371;52.714;5.074;2023-06-14T09:13:02;2.53;;;2.20;;
77310;SDS011;66371;52.714;5.074;2023-06-14T09:15:48;2.42;;;1.85;;
77310;SDS011;66371;52.714;5.074;2023-06-14T09:18:23;2.50;;;2.10;;
77310;SDS011;66371;52.714;5.074;2023-06-14T09:21:15;2.97;;;1.67;;
77310;SDS011;66371;52.714;5.074;2023-06-14T09:23:45;2.88;;;2.17;;
77310;SDS011;66371;52.714;5.074;2023-06-14T09:26:15;4.00;;;1.70;;
77310;SDS011;66371;52.714;5.074;2023-06-14T09:28:57;2.90;;;2.25;;
77310;SDS011;66371;52.714;5.074;2023-06-14T09:31:59;4.07;;;2.63;;
77310;SDS011;66371;52.714;5.074;2023-06-14T09:34:50;5.35;;;2.80;;
77310;SDS011;66371;52.714;5.074;2023-06-14T09:37:31;3.42;;;2.22;;
77310;SDS011;66371;52.714;5.074;2023-06-14T09:39:57;2.85;;;2.00;;
77310;SDS011;66371;52.714;5.074;2023-06-14T09:42:24;2.67;;;1.95;;
77310;SDS011;66371;52.714;5.074;2023-06-14T09:45:07;3.90;;;2.28;;
77310;SDS011;66371;52.714;5.074;2023-06-14T09:47:37;3.88;;;2.65;;
77310;SDS011;66371;52.714;5.074;2023-06-14T09:50:04;6.03;;;1.88;;
77310;SDS011;66371;52.714;5.074;2023-06-14T09:52:33;4.13;;;1.98;;
77310;SDS011;66371;52.714;5.074;2023-06-14T09:55:00;4.05;;;2.28;;
77310;SDS011;66371;52.714;5.074;2023-06-14T09:57:41;2.33;;;1.65;;
77310;SDS011;66371;52.714;5.074;2023-06-14T10:00:24;4.38;;;1.90;;
77310;SDS011;66371;52.714;5.074;2023-06-14T10:02:53;2.75;;;2.03;;
77310;SDS011;66371;52.714;5.074;2023-06-14T10:05:30;2.58;;;2.30;;
77310;SDS011;66371;52.714;5.074;2023-06-14T10:08:08;3.38;;;2.70;;
77310;SDS011;66371;52.714;5.074;2023-06-14T10:10:55;2.47;;;2.28;;
77310;SDS011;66371;52.714;5.074;2023-06-14T10:13:26;3.63;;;2.40;;
77310;SDS011;66371;52.714;5.074;2023-06-14T10:16:14;3.55;;;2.97;;
77310;SDS011;66371;52.714;5.074;2023-06-14T10:19:50;4.90;;;2.33;;
77310;SDS011;66371;52.714;5.074;2023-06-14T10:22:12;2.60;;;1.90;;
77310;SDS011;66371;52.714;5.074;2023-06-14T10:24:47;3.03;;;2.00;;
77310;SDS011;66371;52.714;5.074;2023-06-14T10:27:17;2.67;;;1.88;;
77310;SDS011;66371;52.714;5.074;2023-06-14T10:33:05;2.90;;;2.03;;
77310;SDS011;66371;52.714;5.074;2023-06-14T10:35:45;5.25;;;2.25;;
77310;SDS011;66371;52.714;5.074;2023-06-14T10:38:11;3.03;;;2.25;;
77310;SDS011;66371;52.714;5.074;2023-06-14T10:40:54;2.80;;;2.35;;
77310;SDS011;66371;52.714;5.074;2023-06-14T10:43:29;3.30;;;1.58;;
77310;SDS011;66371;52.714;5.074;2023-06-14T10:49:18;5.00;;;2.22;;
77310;SDS011;66371;52.714;5.074;2023-06-14T10:55:36;3.30;;;2.22;;
77310;SDS011;66371;52.714;5.074;2023-06-14T10:59:05;3.22;;;2.33;;
77310;SDS011;66371;52.714;5.074;2023-06-14T11:01:38;3.90;;;2.53;;
77310;SDS011;66371;52.714;5.074;2023-06-14T11:04:11;4.88;;;2.20;;
77310;SDS011;66371;52.714;5.074;2023-06-14T11:06:55;4.57;;;3.03;;
77310;SDS011;66371;52.714;5.074;2023-06-14T11:09:42;2.80;;;1.45;;
77310;SDS011;66371;52.714;5.074;2023-06-14T11:12:19;3.67;;;2.03;;
77310;SDS011;66371;52.714;5.074;2023-06-14T11:14:46;2.35;;;1.80;;
77310;SDS011;66371;52.714;5.074;2023-06-14T11:17:12;3.28;;;1.92;;
77310;SDS011;66371;52.714;5.074;2023-06-14T11:19:38;2.90;;;1.98;;
77310;SDS011;66371;52.714;5.074;2023-06-14T11:22:03;2.90;;;2.03;;
77310;SDS011;66371;52.714;5.074;2023-06-14T11:24:29;2.50;;;2.17;;
77310;SDS011;66371;52.714;5.074;2023-06-14T11:26:55;2.70;;;2.15;;
77310;SDS011;66371;52.714;5.074;2023-06-14T11:29:21;3.67;;;2.28;;
77310;SDS011;66371;52.714;5.074;2023-06-14T11:31:47;2.20;;;1.73;;
77310;SDS011;66371;52.714;5.074;2023-06-14T11:34:12;4.32;;;1.88;;
77310;SDS011;66371;52.714;5.074;2023-06-14T11:36:38;5.10;;;2.72;;
77310;SDS011;66371;52.714;5.074;2023-06-14T11:39:04;4.63;;;2.95;;
77310;SDS011;66371;52.714;5.074;2023-06-14T11:41:39;4.15;;;2.42;;
77310;SDS011;66371;52.714;5.074;2023-06-14T11:44:06;3.20;;;2.38;;
77310;SDS011;66371;52.714;5.074;2023-06-14T11:46:32;4.20;;;1.73;;
77310;SDS011;66371;52.714;5.074;2023-06-14T11:48:58;2.85;;;2.60;;
77310;SDS011;66371;52.714;5.074;2023-06-14T11:51:24;2.40;;;1.70;;
77310;SDS011;66371;52.714;5.074;2023-06-14T11:53:49;2.95;;;2.08;;
77310;SDS011;66371;52.714;5.074;2023-06-14T11:56:15;2.40;;;1.45;;
77310;SDS011;66371;52.714;5.074;2023-06-14T11:58:44;3.40;;;1.77;;
77310;SDS011;66371;52.714;5.074;2023-06-14T12:01:14;2.88;;;1.73;;
77310;SDS011;66371;52.714;5.074;2023-06-14T12:03:46;2.95;;;1.50;;
77310;SDS011;66371;52.714;5.074;2023-06-14T12:06:13;2.58;;;1.63;;
77310;SDS011;66371;52.714;5.074;2023-06-14T12:08:39;2.85;;;1.55;;
77310;SDS011;66371;52.714;5.074;2023-06-14T12:11:11;4.40;;;1.70;;
77310;SDS011;66371;52.714;5.074;2023-06-14T12:13:40;2.78;;;2.20;;
77310;SDS011;66371;52.714;5.074;2023-06-14T12:16:07;2.72;;;1.77;;
77310;SDS011;66371;52.714;5.074;2023-06-14T12:18:36;3.65;;;2.08;;
77310;SDS011;66371;52.714;5.074;2023-06-14T12:21:07;3.10;;;1.73;;
77310;SDS011;66371;52.714;5.074;2023-06-14T12:23:48;2.95;;;1.50;;
77310;SDS011;66371;52.714;5.074;2023-06-14T12:26:18;2.60;;;1.75;;
77310;SDS011;66371;52.714;5.074;2023-06-14T12:28:44;5.57;;;2.53;;
77310;SDS011;66371;52.714;5.074;2023-06-14T12:31:11;2.85;;;1.95;;
77310;SDS011;66371;52.714;5.074;2023-06-14T12:33:37;3.30;;;2.10;;
77310;SDS011;66371;52.714;5.074;2023-06-14T12:36:04;3.95;;;1.65;;
77310;SDS011;66371;52.714;5.074;2023-06-14T12:38:31;2.90;;;2.20;;
77310;SDS011;66371;52.714;5.074;2023-06-14T12:40:57;2.45;;;2.13;;
77310;SDS011;66371;52.714;5.074;2023-06-14T12:43:22;2.80;;;2.25;;
77310;SDS011;66371;52.714;5.074;2023-06-14T12:45:50;3.45;;;2.25;;
77310;SDS011;66371;52.714;5.074;2023-06-14T12:48:15;5.72;;;2.03;;
77310;SDS011;66371;52.714;5.074;2023-06-14T12:50:41;3.27;;;2.17;;
77310;SDS011;66371;52.714;5.074;2023-06-14T12:53:06;3.03;;;2.13;;
77310;SDS011;66371;52.714;5.074;2023-06-14T12:55:32;2.97;;;2.47;;
77310;SDS011;66371;52.714;5.074;2023-06-14T12:57:58;3.47;;;1.85;;
77310;SDS011;66371;52.714;5.074;2023-06-14T13:00:23;2.90;;;1.90;;
77310;SDS011;66371;52.714;5.074;2023-06-14T13:02:50;3.58;;;2.17;;
77310;SDS011;66371;52.714;5.074;2023-06-14T13:05:16;3.30;;;2.38;;
77310;SDS011;66371;52.714;5.074;2023-06-14T13:07:42;3.67;;;2.30;;
77310;SDS011;66371;52.714;5.074;2023-06-14T13:10:08;2.83;;;2.53;;
77310;SDS011;66371;52.714;5.074;2023-06-14T13:12:33;4.53;;;2.47;;
77310;SDS011;66371;52.714;5.074;2023-06-14T13:14:59;3.03;;;2.13;;
77310;SDS011;66371;52.714;5.074;2023-06-14T13:17:24;4.30;;;3.25;;
77310;SDS011;66371;52.714;5.074;2023-06-14T13:19:49;3.22;;;1.67;;
77310;SDS011;66371;52.714;5.074;2023-06-14T13:22:15;2.92;;;1.88;;
77310;SDS011;66371;52.714;5.074;2023-06-14T13:24:40;3.58;;;1.75;;
77310;SDS011;66371;52.714;5.074;2023-06-14T13:27:06;2.30;;;1.58;;
77310;SDS011;66371;52.714;5.074;2023-06-14T13:29:31;2.33;;;1.75;;
77310;SDS011;66371;52.714;5.074;2023-06-14T13:31:58;2.40;;;2.03;;
77310;SDS011;66371;52.714;5.074;2023-06-14T13:34:23;3.72;;;1.77;;
77310;SDS011;66371;52.714;5.074;2023-06-14T13:36:49;2.33;;;1.95;;
77310;SDS011;66371;52.714;5.074;2023-06-14T13:39:15;2.97;;;1.50;;
77310;SDS011;66371;52.714;5.074;2023-06-14T13:41:41;3.47;;;2.20;;
77310;SDS011;66371;52.714;5.074;2023-06-14T13:44:06;3.20;;;1.47;;
77310;SDS011;66371;52.714;5.074;2023-06-14T13:46:31;4.95;;;1.33;;
77310;SDS011;66371;52.714;5.074;2023-06-14T13:48:57;3.53;;;1.45;;
77310;SDS011;66371;52.714;5.074;2023-06-14T13:51:23;2.88;;;1.67;;
77310;SDS011;66371;52.714;5.074;2023-06-14T13:53:48;2.90;;;2.50;;
77310;SDS011;66371;52.714;5.074;2023-06-14T13:56:15;2.10;;;1.30;;
77310;SDS011;66371;52.714;5.074;2023-06-14T13:58:40;2.90;;;2.42;;
77310;SDS011;66371;52.714;5.074;2023-06-14T14:01:06;2.28;;;1.55;;
77310;SDS011;66371;52.714;5.074;2023-06-14T14:03:32;6.57;;;1.98;;
77310;SDS011;66371;52.714;5.074;2023-06-14T14:05:58;3.03;;;1.27;;
77310;SDS011;66371;52.714;5.074;2023-06-14T14:08:23;4.13;;;1.63;;
77310;SDS011;66371;52.714;5.074;2023-06-14T14:10:49;2.10;;;1.27;;
77310;SDS011;66371;52.714;5.074;2023-06-14T14:13:15;2.63;;;1.48;;
77310;SDS011;66371;52.714;5.074;2023-06-14T14:15:40;3.45;;;1.55;;
77310;SDS011;66371;52.714;5.074;2023-06-14T14:18:05;2.93;;;1.50;;
77310;SDS011;66371;52.714;5.074;2023-06-14T14:20:32;2.53;;;1.65;;
77310;SDS011;66371;52.714;5.074;2023-06-14T14:22:57;2.30;;;1.35;;
77310;SDS011;66371;52.714;5.074;2023-06-14T14:25:22;2.22;;;1.30;;
77310;SDS011;66371;52.714;5.074;2023-06-14T14:27:48;3.50;;;1.67;;
77310;SDS011;66371;52.714;5.074;2023-06-14T14:30:13;2.65;;;1.50;;
77310;SDS011;66371;52.714;5.074;2023-06-14T14:32:39;5.95;;;2.45;;
77310;SDS011;66371;52.714;5.074;2023-06-14T14:35:05;3.30;;;1.48;;
77310;SDS011;66371;52.714;5.074;2023-06-14T14:37:31;2.47;;;2.00;;
77310;SDS011;66371;52.714;5.074;2023-06-14T14:39:56;4.32;;;1.42;;
77310;SDS011;66371;52.714;5.074;2023-06-14T14:42:22;2.63;;;1.30;;
77310;SDS011;66371;52.714;5.074;2023-06-14T14:44:47;1.95;;;1.63;;
77310;SDS011;66371;52.714;5.074;2023-06-14T14:47:13;2.70;;;1.60;;
77310;SDS011;66371;52.714;5.074;2023-06-14T14:49:38;4.73;;;1.60;;
77310;SDS011;66371;52.714;5.074;2023-06-14T14:52:03;2.60;;;1.63;;
77310;SDS011;66371;52.714;5.074;2023-06-14T14:54:29;2.38;;;2.00;;
77310;SDS011;66371;52.714;5.074;2023-06-14T14:56:54;2.17;;;1.60;;
77310;SDS011;66371;52.714;5.074;2023-06-14T14:59:20;2.72;;;1.77;;
77310;SDS011;66371;52.714;5.074;2023-06-14T15:01:47;2.60;;;1.45;;
77310;SDS011;66371;52.714;5.074;2023-06-14T15:04:13;2.15;;;1.27;;
77310;SDS011;66371;52.714;5.074;2023-06-14T15:06:38;4.38;;;1.40;;
77310;SDS011;66371;52.714;5.074;2023-06-14T15:09:04;4.45;;;1.75;;
77310;SDS011;66371;52.714;5.074;2023-06-14T15:11:31;2.30;;;1.38;;
77310;SDS011;66371;52.714;5.074;2023-06-14T15:13:56;2.53;;;1.55;;
77310;SDS011;66371;52.714;5.074;2023-06-14T15:16:21;4.00;;;1.42;;
77310;SDS011;66371;52.714;5.074;2023-06-14T15:18:47;2.17;;;1.17;;
77310;SDS011;66371;52.714;5.074;2023-06-14T15:21:12;3.35;;;1.70;;
77310;SDS011;66371;52.714;5.074;2023-06-14T15:23:38;3.50;;;1.73;;
77310;SDS011;66371;52.714;5.074;2023-06-14T15:26:03;2.20;;;1.33;;
77310;SDS011;66371;52.714;5.074;2023-06-14T15:28:28;2.45;;;1.63;;
77310;SDS011;66371;52.714;5.074;2023-06-14T15:30:55;2.72;;;1.77;;
77310;SDS011;66371;52.714;5.074;2023-06-14T15:33:21;2.70;;;1.77;;
77310;SDS011;66371;52.714;5.074;2023-06-14T15:35:46;3.95;;;1.42;;
77310;SDS011;66371;52.714;5.074;2023-06-14T15:38:12;2.83;;;1.45;;
77310;SDS011;66371;52.714;5.074;2023-06-14T15:40:37;2.00;;;1.20;;
77310;SDS011;66371;52.714;5.074;2023-06-14T15:43:02;3.43;;;1.20;;
77310;SDS011;66371;52.714;5.074;2023-06-14T15:45:28;2.53;;;1.42;;
77310;SDS011;66371;52.714;5.074;2023-06-14T15:47:54;3.08;;;1.75;;